Main page
METAR-TAF:

METAR-TAF

Airports :

Hope Aerodrome

Hope, British Columbia, Canada

latitude: 49-22N, longitude: 121-29W, elevation: 128 ft

Current weather observation

The report was made 30 minutes ago, at 23:00 UTC
Wind 12 mph from the West/Northwest with gusts up to 20 mph
Temperature 73°F
Humidity 38%
Pressure 29.95 in. Hg
Visibility: 9 miles
Clear sky

METAR: CYHE 132300Z AUTO 29010G17KT 9SM CLR 23/08 A2995 RMK SLP144 DENSITY ALT 1000FT

Time: 16:30 (23:30 UTC)


TAF: missing

Weather observations and forecasts of more than 4000 airports (METAR and TAF reports).

The available stations are represented by yellow and red dots on the map.

Hover mouse over dot to see the name of the station.

Then click to see weather observations and forecasts.

To change the map : click on the green buttons with a black cross to zoom in, on the green button with a dash to zoom out, or on the green arrows for adjacent maps.


METAR-TAF: